createdAt,value
2023-04-12T00:02:10.351Z,4.80
2023-04-12T00:04:36.776Z,4.80
2023-04-12T00:07:03.156Z,4.84
2023-04-12T00:09:29.744Z,4.86
2023-04-12T00:11:57.028Z,4.87
2023-04-12T00:14:23.139Z,4.86
2023-04-12T00:16:49.774Z,4.87
2023-04-12T00:19:18.771Z,4.82
2023-04-12T00:21:45.231Z,4.78
2023-04-12T00:24:11.654Z,4.76
2023-04-12T00:26:37.735Z,4.74
2023-04-12T00:29:03.844Z,4.73
2023-04-12T00:31:29.984Z,4.70
2023-04-12T00:33:56.647Z,4.65
2023-04-12T00:36:22.970Z,4.64
2023-04-12T00:38:49.239Z,4.64
2023-04-12T00:41:15.523Z,4.65
2023-04-12T00:43:41.758Z,4.63
2023-04-12T00:46:07.891Z,4.59
2023-04-12T00:48:34.114Z,4.57
2023-04-12T00:51:00.237Z,4.58
2023-04-12T00:53:26.554Z,4.58
2023-04-12T00:55:52.739Z,4.57
2023-04-12T00:58:18.852Z,4.54
2023-04-12T01:00:49.438Z,4.51
2023-04-12T01:03:15.686Z,4.49
2023-04-12T01:05:41.930Z,4.48
2023-04-12T01:08:09.962Z,4.46
2023-04-12T01:10:36.165Z,4.47
2023-04-12T01:13:02.329Z,4.48
2023-04-12T01:15:30.655Z,4.50
2023-04-12T01:18:01.996Z,4.52
2023-04-12T01:20:28.303Z,4.55
2023-04-12T01:22:54.772Z,4.55
2023-04-12T01:25:23.470Z,4.52
2023-04-12T01:27:49.567Z,4.54
2023-04-12T01:30:15.764Z,4.49
2023-04-12T01:32:41.941Z,4.46
2023-04-12T01:35:08.251Z,4.43
2023-04-12T01:37:34.331Z,4.40
2023-04-12T01:40:00.533Z,4.37
2023-04-12T01:42:27.916Z,4.35
2023-04-12T01:44:54.106Z,4.34
2023-04-12T01:47:20.161Z,4.33
2023-04-12T01:49:46.257Z,4.35
2023-04-12T01:52:12.442Z,4.32
2023-04-12T01:54:38.666Z,4.28
2023-04-12T01:57:04.781Z,4.22
2023-04-12T01:59:30.994Z,4.14
2023-04-12T02:01:57.211Z,4.11
2023-04-12T02:04:25.463Z,4.06
2023-04-12T02:06:51.644Z,4.00
2023-04-12T02:09:17.731Z,3.98
2023-04-12T02:11:43.832Z,3.95
2023-04-12T02:14:09.983Z,3.92
2023-04-12T02:16:36.170Z,3.86
2023-04-12T02:19:03.761Z,3.82
2023-04-12T02:21:30.232Z,3.83
2023-04-12T02:23:56.532Z,3.86
2023-04-12T02:26:22.805Z,3.89
2023-04-12T02:28:48.875Z,3.95
2023-04-12T02:31:15.139Z,3.97
2023-04-12T02:33:41.948Z,3.96
2023-04-12T02:36:08.263Z,4.01
2023-04-12T02:38:34.352Z,4.07
2023-04-12T02:41:00.808Z,4.09
2023-04-12T02:43:26.900Z,4.11
2023-04-12T02:45:53.236Z,4.11
2023-04-12T02:48:19.587Z,4.07
2023-04-12T02:50:45.658Z,4.07
2023-04-12T02:53:11.822Z,4.05
2023-04-12T02:55:38.236Z,4.06
2023-04-12T02:58:04.446Z,4.07
2023-04-12T03:00:30.875Z,4.06
2023-04-12T03:02:58.367Z,4.03
2023-04-12T03:05:25.159Z,3.97
2023-04-12T03:07:51.234Z,3.95
2023-04-12T03:10:17.524Z,3.94
2023-04-12T03:12:43.689Z,3.93
2023-04-12T03:15:09.781Z,3.92
2023-04-12T03:17:36.022Z,3.90
2023-04-12T03:20:02.268Z,3.89
2023-04-12T03:22:28.501Z,3.87
2023-04-12T03:24:54.690Z,3.84
2023-04-12T03:27:20.789Z,3.80
2023-04-12T03:29:46.879Z,3.77
2023-04-12T03:32:13.007Z,3.75
2023-04-12T03:34:39.314Z,3.73
2023-04-12T03:37:05.439Z,3.69
2023-04-12T03:39:31.815Z,3.65
2023-04-12T03:41:57.881Z,3.66
2023-04-12T03:44:25.489Z,3.65
2023-04-12T03:46:52.249Z,3.64
2023-04-12T03:49:18.583Z,3.64
2023-04-12T03:51:44.780Z,3.63
2023-04-12T03:54:10.965Z,3.59
2023-04-12T03:56:37.904Z,3.57
2023-04-12T03:59:04.118Z,3.55
2023-04-12T04:01:30.410Z,3.55
2023-04-12T04:03:57.167Z,3.56
2023-04-12T04:06:23.541Z,3.56
2023-04-12T04:08:49.770Z,3.54
2023-04-12T04:11:16.182Z,3.55
2023-04-12T04:13:42.357Z,3.54
2023-04-12T04:16:11.437Z,3.56
2023-04-12T04:18:37.534Z,3.56
2023-04-12T04:21:03.662Z,3.56
2023-04-12T04:23:30.061Z,3.55
2023-04-12T04:25:56.760Z,3.55
2023-04-12T04:28:22.960Z,3.53
2023-04-12T04:30:51.008Z,3.52
2023-04-12T04:33:17.962Z,3.51
2023-04-12T04:35:44.132Z,3.50
2023-04-12T04:38:10.322Z,3.47
2023-04-12T04:40:36.505Z,3.49
2023-04-12T04:43:02.603Z,3.49
2023-04-12T04:45:29.811Z,3.53
2023-04-12T04:47:56.070Z,3.53
2023-04-12T04:50:22.507Z,3.52
2023-04-12T04:52:48.933Z,3.53
2023-04-12T04:55:16.888Z,3.56
2023-04-12T04:57:42.988Z,3.60
2023-04-12T05:00:13.298Z,3.63
2023-04-12T05:02:42.216Z,3.64
2023-04-12T05:05:08.435Z,3.65
2023-04-12T05:07:35.667Z,3.66
2023-04-12T05:10:01.820Z,3.66
2023-04-12T05:12:27.910Z,3.67
2023-04-12T05:15:08.498Z,3.63
2023-04-12T05:17:37.594Z,3.60
2023-04-12T05:20:07.756Z,3.57
2023-04-12T05:22:33.909Z,3.54
2023-04-12T05:25:00.537Z,3.53
2023-04-12T05:27:30.078Z,3.51
2023-04-12T05:29:56.143Z,3.50
2023-04-12T05:32:22.389Z,3.51
2023-04-12T05:34:48.539Z,3.52
2023-04-12T05:37:14.808Z,3.52
2023-04-12T05:39:40.969Z,3.53
2023-04-12T05:42:07.213Z,3.55
2023-04-12T05:44:33.303Z,3.57
2023-04-12T05:46:59.441Z,3.62
2023-04-12T05:49:25.733Z,3.63
2023-04-12T05:51:51.844Z,3.65
2023-04-12T05:54:20.548Z,3.67
2023-04-12T05:56:46.749Z,3.70
2023-04-12T05:59:12.948Z,3.69
2023-04-12T06:01:44.032Z,3.70
2023-04-12T06:04:10.479Z,3.73
2023-04-12T06:06:36.724Z,3.75
2023-04-12T06:09:04.199Z,3.76
2023-04-12T06:11:31.320Z,3.81
2023-04-12T06:13:57.513Z,3.88
2023-04-12T06:16:26.732Z,3.91
2023-04-12T06:18:52.964Z,3.96
2023-04-12T06:21:19.393Z,3.98
2023-04-12T06:23:45.472Z,4.00
2023-04-12T06:26:11.667Z,4.01
2023-04-12T06:28:37.901Z,3.97
2023-04-12T06:31:04.071Z,3.97
2023-04-12T06:33:30.308Z,3.97
2023-04-12T06:35:56.529Z,3.96
2023-04-12T06:38:22.680Z,3.98
2023-04-12T06:40:51.136Z,3.96
2023-04-12T06:43:19.637Z,3.94
2023-04-12T06:45:46.025Z,3.94
2023-04-12T06:48:12.214Z,3.95
2023-04-12T06:50:38.523Z,3.96
2023-04-12T06:53:04.616Z,3.98
2023-04-12T06:55:30.807Z,3.98
2023-04-12T06:57:56.931Z,4.01
2023-04-12T07:00:23.002Z,4.06
2023-04-12T07:02:49.622Z,4.09
2023-04-12T07:05:16.109Z,4.09
2023-04-12T07:07:42.236Z,4.11
2023-04-12T07:10:08.501Z,4.17
2023-04-12T07:12:34.664Z,4.22
2023-04-12T07:15:00.788Z,4.29
2023-04-12T07:17:27.190Z,4.39
2023-04-12T07:19:53.468Z,4.45
2023-04-12T07:22:19.926Z,4.54
2023-04-12T07:24:46.036Z,4.63
2023-04-12T07:27:12.136Z,4.69
2023-04-12T07:29:38.270Z,4.69
2023-04-12T07:32:04.566Z,4.69
2023-04-12T07:34:30.808Z,4.73
2023-04-12T07:36:57.036Z,4.81
2023-04-12T07:39:23.221Z,4.84
2023-04-12T07:41:49.336Z,4.86
2023-04-12T07:44:15.550Z,4.89
2023-04-12T07:46:41.837Z,4.93
2023-04-12T07:49:09.832Z,4.97
2023-04-12T07:51:36.061Z,5.00
2023-04-12T07:54:03.299Z,4.98
2023-04-12T07:56:29.393Z,4.96
2023-04-12T07:58:55.472Z,4.96
2023-04-12T08:01:21.559Z,5.00
2023-04-12T08:03:47.726Z,5.04
2023-04-12T08:06:14.329Z,5.03
2023-04-12T08:08:40.672Z,4.99
2023-04-12T08:11:06.998Z,4.98
2023-04-12T08:13:33.393Z,4.98
2023-04-12T08:15:59.535Z,4.99
2023-04-12T08:18:26.892Z,5.04
2023-04-12T08:20:53.557Z,5.10
2023-04-12T08:23:19.952Z,5.15
2023-04-12T08:25:46.208Z,5.19
2023-04-12T08:28:12.532Z,5.17
2023-04-12T08:30:38.622Z,5.20
2023-04-12T08:33:04.913Z,5.27
2023-04-12T08:35:32.077Z,5.22
2023-04-12T08:37:59.675Z,5.24
2023-04-12T08:40:26.437Z,5.34
2023-04-12T08:42:53.357Z,5.44
2023-04-12T08:45:19.629Z,5.49
2023-04-12T08:47:46.151Z,5.56
2023-04-12T08:50:16.809Z,5.69
2023-04-12T08:52:42.973Z,5.81
2023-04-12T08:55:26.061Z,5.81
2023-04-12T08:57:52.232Z,5.88
2023-04-12T09:00:18.358Z,5.86
2023-04-12T09:02:46.794Z,5.83
2023-04-12T09:05:13.847Z,5.86
2023-04-12T09:07:40.585Z,5.92
2023-04-12T09:10:07.151Z,5.91
2023-04-12T09:12:33.554Z,5.94
2023-04-12T09:14:59.957Z,5.93
2023-04-12T09:17:26.176Z,5.97
2023-04-12T09:19:54.327Z,6.07
2023-04-12T09:22:20.709Z,6.14
2023-04-12T09:24:47.167Z,6.11
2023-04-12T09:27:13.521Z,6.05
2023-04-12T09:29:39.727Z,6.12
2023-04-12T09:32:05.907Z,6.18
2023-04-12T09:34:32.356Z,6.17
2023-04-12T09:36:58.708Z,6.12
2023-04-12T09:39:24.872Z,6.14
2023-04-12T09:41:50.967Z,6.13
2023-04-12T09:44:17.062Z,6.16
2023-04-12T09:46:48.140Z,6.20
2023-04-12T09:49:14.921Z,6.27
2023-04-12T09:51:41.245Z,6.30
2023-04-12T09:54:08.418Z,6.37
2023-04-12T09:56:35.164Z,6.37
2023-04-12T09:59:02.390Z,6.39
2023-04-12T10:01:28.722Z,6.51
2023-04-12T10:03:55.458Z,6.60
2023-04-12T10:06:22.219Z,6.58
2023-04-12T10:08:48.384Z,6.52
2023-04-12T10:11:15.154Z,6.47
2023-04-12T10:13:41.634Z,6.55
2023-04-12T10:16:08.585Z,6.71
2023-04-12T10:18:35.362Z,6.85
2023-04-12T10:21:01.523Z,6.92
2023-04-12T10:23:27.835Z,6.95
2023-04-12T10:25:55.699Z,7.03
2023-04-12T10:28:22.446Z,7.11
2023-04-12T10:31:10.470Z,7.21
2023-04-12T10:33:55.502Z,7.34
2023-04-12T10:36:22.112Z,7.33
2023-04-12T10:38:49.519Z,7.36
2023-04-12T10:41:16.129Z,7.41
2023-04-12T10:43:42.502Z,7.49
2023-04-12T10:46:09.124Z,7.55
2023-04-12T10:48:35.778Z,7.71
2023-04-12T10:51:02.942Z,7.89
2023-04-12T10:53:30.064Z,7.97
2023-04-12T10:55:56.455Z,7.99
2023-04-12T10:58:22.815Z,8.03
2023-04-12T11:00:49.145Z,8.10
2023-04-12T11:03:16.031Z,8.18
2023-04-12T11:05:42.971Z,8.36
2023-04-12T11:08:09.597Z,8.61
2023-04-12T11:10:36.075Z,8.62
2023-04-12T11:13:02.390Z,8.64
2023-04-12T11:15:29.513Z,8.67
2023-04-12T11:17:55.981Z,8.70
2023-04-12T11:20:22.583Z,8.60
2023-04-12T11:22:49.026Z,8.60
2023-04-12T11:25:15.222Z,8.61
2023-04-12T11:27:41.626Z,8.57
2023-04-12T11:30:08.105Z,8.60
2023-04-12T11:32:34.816Z,8.60
2023-04-12T11:35:01.681Z,8.53
2023-04-12T11:37:27.943Z,8.47
2023-04-12T11:39:54.145Z,8.52
2023-04-12T11:42:20.469Z,8.67
2023-04-12T11:47:16.506Z,8.79
2023-04-12T11:49:42.961Z,8.81
2023-04-12T11:52:09.166Z,8.64
2023-04-12T11:54:35.343Z,8.39
2023-04-12T11:57:04.260Z,8.27
2023-04-12T11:59:32.394Z,8.20
2023-04-12T12:01:58.810Z,8.17
2023-04-12T12:04:25.428Z,8.07
2023-04-12T12:06:52.268Z,8.00
2023-04-12T12:09:18.512Z,7.91
2023-04-12T12:11:44.720Z,7.78
2023-04-12T12:14:11.119Z,7.77
2023-04-12T12:16:40.845Z,7.79
2023-04-12T12:19:07.582Z,7.83
2023-04-12T12:21:34.001Z,7.94
2023-04-12T12:24:00.805Z,8.06
2023-04-12T12:26:27.646Z,8.14
2023-04-12T12:28:54.100Z,8.17
2023-04-12T12:31:20.945Z,8.18
2023-04-12T12:33:47.745Z,8.19
2023-04-12T12:36:14.107Z,8.19
2023-04-12T12:38:42.000Z,8.19
2023-04-12T12:41:08.402Z,8.18
2023-04-12T12:43:34.740Z,8.16
2023-04-12T12:46:01.041Z,8.19
2023-04-12T12:48:27.793Z,8.18
2023-04-12T12:50:54.228Z,8.21
2023-04-12T12:53:22.545Z,8.34
2023-04-12T12:55:50.466Z,8.45
2023-04-12T12:58:16.751Z,8.51
2023-04-12T13:00:43.360Z,8.61
2023-04-12T13:03:10.136Z,8.65
2023-04-12T13:05:36.523Z,8.57
2023-04-12T13:08:02.710Z,8.63
2023-04-12T13:10:28.937Z,8.65
2023-04-12T13:12:55.476Z,8.56
2023-04-12T13:15:24.384Z,8.48
2023-04-12T13:17:51.139Z,8.48
2023-04-12T13:20:17.463Z,8.53
2023-04-12T13:22:43.718Z,8.61
2023-04-12T13:25:10.421Z,8.70
2023-04-12T13:27:37.332Z,8.73
2023-04-12T13:30:03.472Z,8.79
2023-04-12T13:32:29.686Z,8.89
2023-04-12T13:34:55.932Z,8.88
2023-04-12T13:37:22.337Z,8.76
2023-04-12T13:39:49.070Z,8.61
2023-04-12T13:42:15.600Z,8.50
2023-04-12T13:44:42.720Z,8.53
2023-04-12T13:47:09.126Z,8.56
2023-04-12T13:49:35.715Z,8.52
2023-04-12T13:52:02.457Z,8.55
2023-04-12T13:54:29.993Z,8.68
2023-04-12T13:56:57.196Z,8.95
2023-04-12T13:59:23.627Z,9.13
2023-04-12T14:01:50.190Z,9.20
2023-04-12T14:04:16.654Z,9.18
2023-04-12T14:06:45.038Z,9.16
2023-04-12T14:09:11.537Z,9.12
2023-04-12T14:11:38.100Z,9.13
2023-04-12T14:14:04.401Z,9.16
2023-04-12T14:16:30.786Z,9.24
2023-04-12T14:18:57.447Z,9.34
2023-04-12T14:21:28.471Z,9.45
2023-04-12T14:23:54.694Z,9.52
2023-04-12T14:26:21.144Z,9.56
2023-04-12T14:28:49.505Z,9.57
2023-04-12T14:31:16.283Z,9.48
2023-04-12T14:33:42.758Z,9.36
2023-04-12T14:36:09.293Z,9.34
2023-04-12T14:38:35.701Z,9.37
2023-04-12T14:41:02.133Z,9.38
2023-04-12T14:43:28.791Z,9.24
2023-04-12T14:45:55.022Z,9.14
2023-04-12T14:48:21.334Z,9.14
2023-04-12T14:50:47.649Z,9.13
2023-04-12T14:53:15.756Z,9.17
2023-04-12T14:55:42.374Z,9.19
2023-04-12T14:58:08.551Z,9.19
2023-04-12T15:00:34.909Z,9.25
2023-04-12T15:03:01.437Z,9.29
2023-04-12T15:05:27.902Z,9.32
2023-04-12T15:07:54.472Z,9.41
2023-04-12T15:10:20.876Z,9.41
2023-04-12T15:12:47.015Z,9.33
2023-04-12T15:15:13.439Z,9.27
2023-04-12T15:17:40.157Z,9.31
2023-04-12T15:20:10.965Z,9.46
2023-04-12T15:22:37.158Z,9.47
2023-04-12T15:25:03.782Z,9.50
2023-04-12T15:27:30.767Z,9.55
2023-04-12T15:29:56.968Z,9.58
2023-04-12T15:32:25.451Z,9.59
2023-04-12T15:34:51.867Z,9.58
2023-04-12T15:37:18.744Z,9.61
2023-04-12T15:39:45.197Z,9.66
2023-04-12T15:42:11.546Z,9.74
2023-04-12T15:44:37.656Z,9.81
2023-04-12T15:47:11.692Z,9.87
2023-04-12T15:49:38.533Z,9.92
2023-04-12T15:52:04.787Z,9.96
2023-04-12T15:54:31.222Z,9.98
2023-04-12T15:56:57.450Z,10.05
2023-04-12T15:59:24.123Z,10.14
2023-04-12T16:01:51.164Z,10.18
2023-04-12T16:04:17.732Z,10.26
2023-04-12T16:06:44.185Z,10.39
2023-04-12T16:09:11.743Z,10.38
2023-04-12T16:11:37.998Z,10.31
2023-04-12T16:14:04.190Z,10.30
2023-04-12T16:16:30.654Z,10.32
2023-04-12T16:18:57.303Z,10.31
2023-04-12T16:21:25.872Z,10.27
2023-04-12T16:23:52.626Z,10.23
2023-04-12T16:26:21.105Z,10.36
2023-04-12T16:28:47.283Z,10.31
2023-04-12T16:31:14.976Z,10.13
2023-04-12T16:33:42.623Z,9.94
2023-04-12T16:36:10.157Z,9.82
2023-04-12T16:38:36.919Z,9.76
2023-04-12T16:41:03.109Z,9.70
2023-04-12T16:43:29.322Z,9.63
2023-04-12T16:45:56.174Z,9.58
2023-04-12T16:48:22.832Z,9.50
2023-04-12T16:50:49.349Z,9.44
2023-04-12T16:53:16.280Z,9.42
2023-04-12T16:55:43.193Z,9.40
2023-04-12T16:58:09.596Z,9.33
2023-04-12T17:00:36.446Z,9.26
2023-04-12T17:03:02.818Z,9.20
2023-04-12T17:05:29.712Z,9.11
2023-04-12T17:07:56.760Z,9.03
2023-04-12T17:10:23.716Z,9.02
2023-04-12T17:12:49.921Z,8.98
2023-04-12T17:15:16.765Z,8.92
2023-04-12T17:17:43.190Z,8.85
2023-04-12T17:20:10.912Z,8.74
2023-04-12T17:22:37.486Z,8.84
2023-04-12T17:25:03.972Z,8.84
2023-04-12T17:27:33.923Z,8.69
2023-04-12T17:30:00.692Z,8.52
2023-04-12T17:32:27.967Z,8.32
2023-04-12T17:34:54.248Z,8.18
2023-04-12T17:37:20.970Z,8.05
2023-04-12T17:39:47.627Z,7.99
2023-04-12T17:42:13.808Z,7.94
2023-04-12T17:44:40.504Z,7.87
2023-04-12T17:47:07.155Z,7.81
2023-04-12T17:49:33.327Z,7.75
2023-04-12T17:52:00.808Z,7.62
2023-04-12T17:54:27.347Z,7.48
2023-04-12T17:56:54.273Z,7.34
2023-04-12T17:59:21.495Z,7.20
2023-04-12T18:01:48.249Z,7.07
2023-04-12T18:04:14.725Z,6.98
2023-04-12T18:06:41.597Z,6.91
2023-04-12T18:09:08.336Z,6.90
2023-04-12T18:11:38.066Z,6.89
2023-04-12T18:14:04.353Z,6.88
2023-04-12T18:16:31.576Z,6.90
2023-04-12T18:18:58.606Z,6.90
2023-04-12T18:21:25.604Z,6.89
2023-04-12T18:23:51.855Z,7.27
2023-04-12T18:26:18.488Z,7.47
2023-04-12T18:28:45.389Z,7.44
2023-04-12T18:31:12.150Z,7.19
2023-04-12T18:33:38.844Z,6.97
2023-04-12T18:36:04.991Z,6.82
2023-04-12T18:38:33.177Z,6.66
2023-04-12T18:40:59.836Z,6.58
2023-04-12T18:43:26.518Z,6.52
2023-04-12T18:45:53.154Z,6.48
2023-04-12T18:48:19.341Z,6.43
2023-04-12T18:50:45.560Z,6.42
2023-04-12T18:53:11.877Z,6.37
2023-04-12T18:55:38.589Z,6.31
2023-04-12T18:58:05.178Z,6.20
2023-04-12T19:00:32.619Z,6.04
2023-04-12T19:02:59.052Z,5.88
2023-04-12T19:05:25.786Z,5.74
2023-04-12T19:07:52.471Z,5.57
2023-04-12T19:10:19.056Z,5.46
2023-04-12T19:12:45.660Z,5.39
2023-04-12T19:15:12.244Z,5.36
2023-04-12T19:17:39.046Z,5.33
2023-04-12T19:20:05.665Z,5.29
2023-04-12T19:22:32.384Z,5.27
2023-04-12T19:24:58.955Z,5.24
2023-04-12T19:27:26.613Z,5.19
2023-04-12T19:29:54.313Z,5.19
2023-04-12T19:32:21.482Z,5.13
2023-04-12T19:34:47.749Z,5.09
2023-04-12T19:37:14.561Z,5.04
2023-04-12T19:39:41.295Z,5.03
2023-04-12T19:42:07.693Z,5.04
2023-04-12T19:44:34.085Z,5.05
2023-04-12T19:47:01.124Z,5.00
2023-04-12T19:49:27.391Z,4.94
2023-04-12T19:51:53.782Z,4.83
2023-04-12T19:54:22.792Z,4.70
2023-04-12T19:56:49.244Z,4.59
2023-04-12T19:59:15.378Z,4.54
2023-04-12T20:01:47.954Z,4.52
2023-04-12T20:04:15.077Z,4.49
2023-04-12T20:06:41.307Z,4.45
2023-04-12T20:09:07.586Z,4.47
2023-04-12T20:11:33.701Z,4.48
2023-04-12T20:14:00.129Z,4.49
2023-04-12T20:16:26.472Z,4.51
2023-04-12T20:18:58.361Z,4.48
2023-04-12T20:21:24.780Z,4.46
2023-04-12T20:23:51.073Z,4.44
2023-04-12T20:26:17.168Z,4.37
2023-04-12T20:28:44.652Z,4.28
2023-04-12T20:31:12.120Z,4.18
2023-04-12T20:33:38.357Z,4.12
2023-04-12T20:36:04.485Z,4.11
2023-04-12T20:38:30.629Z,4.13
2023-04-12T20:41:00.210Z,4.19
2023-04-12T20:43:26.590Z,4.18
2023-04-12T20:45:53.155Z,4.15
2023-04-12T20:48:19.319Z,4.16
2023-04-12T20:50:45.822Z,4.13
2023-04-12T20:53:16.793Z,4.09
2023-04-12T20:55:43.441Z,4.06
2023-04-12T20:58:11.463Z,4.05
2023-04-12T21:00:37.552Z,4.03
2023-04-12T21:03:04.176Z,4.01
2023-04-12T21:05:32.848Z,3.98
2023-04-12T21:07:58.925Z,3.98
2023-04-12T21:10:25.895Z,3.97
2023-04-12T21:12:52.009Z,3.94
2023-04-12T21:15:21.179Z,3.90
2023-04-12T21:17:47.408Z,3.90
2023-04-12T21:20:13.920Z,3.94
2023-04-12T21:22:40.604Z,3.92
2023-04-12T21:25:06.886Z,3.94
2023-04-12T21:27:32.996Z,3.94
2023-04-12T21:29:59.456Z,3.93
2023-04-12T21:32:25.653Z,3.87
2023-04-12T21:34:52.435Z,3.80
2023-04-12T21:37:21.390Z,3.75
2023-04-12T21:39:47.695Z,3.72
2023-04-12T21:42:13.956Z,3.63
2023-04-12T21:44:40.463Z,3.58
2023-04-12T21:47:06.916Z,3.60
2023-04-12T21:49:33.705Z,3.54
2023-04-12T21:52:00.001Z,3.48
2023-04-12T21:54:28.240Z,3.44
2023-04-12T21:56:54.336Z,3.36
2023-04-12T21:59:20.578Z,3.33
2023-04-12T22:01:46.773Z,3.29
2023-04-12T22:04:12.936Z,3.27
2023-04-12T22:06:39.136Z,3.26
2023-04-12T22:09:05.403Z,3.24
2023-04-12T22:11:31.522Z,3.22
2023-04-12T22:13:57.612Z,3.22
2023-04-12T22:16:23.870Z,3.18
2023-04-12T22:18:50.133Z,3.15
2023-04-12T22:21:16.943Z,3.14
2023-04-12T22:23:43.189Z,3.12
2023-04-12T22:26:09.650Z,3.10
2023-04-12T22:28:37.184Z,3.06
2023-04-12T22:31:03.501Z,2.94
2023-04-12T22:33:29.693Z,2.89
2023-04-12T22:35:56.411Z,2.89
2023-04-12T22:38:22.511Z,2.88
2023-04-12T22:40:48.870Z,2.84
2023-04-12T22:43:17.371Z,2.84
2023-04-12T22:45:45.496Z,2.82
2023-04-12T22:48:14.180Z,2.70
2023-04-12T22:50:40.290Z,2.61
2023-04-12T22:53:06.372Z,2.62
2023-04-12T22:55:32.730Z,2.61
2023-04-12T22:57:58.857Z,2.57
2023-04-12T23:00:26.249Z,2.58
2023-04-12T23:02:53.368Z,2.54
2023-04-12T23:05:19.660Z,2.48
2023-04-12T23:07:46.472Z,2.39
2023-04-12T23:10:12.738Z,2.36
2023-04-12T23:12:39.251Z,2.33
2023-04-12T23:15:05.470Z,2.30
2023-04-12T23:17:32.087Z,2.16
2023-04-12T23:20:01.059Z,2.13
2023-04-12T23:22:52.190Z,2.13
2023-04-12T23:25:21.020Z,2.11
2023-04-12T23:27:47.659Z,2.11
2023-04-12T23:30:14.051Z,2.10
2023-04-12T23:32:40.154Z,2.13
2023-04-12T23:35:06.300Z,2.07
2023-04-12T23:37:32.653Z,1.92
2023-04-12T23:40:06.095Z,1.76
2023-04-12T23:42:32.303Z,1.70
2023-04-12T23:44:58.972Z,1.70
2023-04-12T23:47:25.282Z,1.71
2023-04-12T23:49:51.541Z,1.71
2023-04-12T23:52:17.758Z,1.71
2023-04-12T23:54:43.872Z,1.65
2023-04-12T23:57:10.044Z,1.54
2023-04-12T23:59:36.145Z,1.45
